Погода Макамбана неделю

Бубанза, Бурунди

23 - 29 июля
  • 23июля
    Сегодня
    +14°
    +27°
    Небольшая облачность
    ВремяПогодаТемператураВлажностьДавлениеВетер, м/сВероятность осадков
    02:00Облачно с прояснениями+21°C65 %645 мм1.5 м/с5 %
    05:00Облачно с прояснениями+17°C66 %643 мм1.5 м/с5 %
    08:00Облачно с прояснениями+17°C64 %645 мм1.1 м/с4 %
    11:00Облачно с прояснениями+24°C44 %647 мм2.9 м/с8 %
    14:00Небольшая облачность+27°C30 %646 мм2.6 м/с8 %
    17:00Небольшая облачность+25°C41 %645 мм1.9 м/с3 %
    20:00Ясно и безоблачно+18°C72 %644 мм1.7 м/с5 %
    23:00Ясно и безоблачно+17°C63 %644 мм0.7 м/с5 %
  • 24июля
    Среда
    +15°
    +26°
    Практически безоблачно
    ВремяПогодаТемператураВлажностьДавлениеВетер, м/сВероятность осадков
    02:00Практически безоблачно+21°C50 %645 мм0.7 м/с5 %
    05:00Небольшая облачность+16°C53 %643 мм1.1 м/с5 %
    08:00Небольшая облачность+17°C45 %645 мм0.7 м/с5 %
    11:00Практически безоблачно+25°C27 %647 мм2.7 м/с5 %
    14:00Практически безоблачно+26°C35 %645 мм2.3 м/с3 %
    17:00Ясно и безоблачно+24°C42 %643 мм2.3 м/с4 %
    20:00Небольшая облачность+20°C48 %643 мм1.2 м/с5 %
    23:00Ясно и безоблачно+19°C47 %644 мм0.4 м/с5 %
  • 25июля
    Четверг
    +16°
    +28°
    Небольшая облачность
    ВремяПогодаТемператураВлажностьДавлениеВетер, м/сВероятность осадков
    02:00Практически безоблачно+19°C54 %643 мм1.1 м/с5 %
    05:00Небольшая облачность+15°C55 %641 мм0.9 м/с5 %
    08:00Ясно и безоблачно+19°C37 %644 мм0.6 м/с5 %
    11:00Практически безоблачно+26°C25 %646 мм2.4 м/с5 %
    14:00Небольшая облачность+28°C25 %644 мм3.6 м/с5 %
    17:00Ясно и безоблачно+25°C27 %643 мм2.1 м/с5 %
    20:00Ясно и безоблачно+20°C48 %642 мм1.7 м/с5 %
    23:00Небольшая облачность+17°C45 %641 мм1.6 м/с5 %
  • 26июля
    Пятница
    +15°
    +28°
    Ясно и безоблачно
    ВремяПогодаТемператураВлажностьДавлениеВетер, м/сВероятность осадков
    02:00Облачно с прояснениями+19°C45 %641 мм1.1 м/с5 %
    05:00Небольшая облачность+17°C48 %641 мм1.6 м/с5 %
    08:00Ясно и безоблачно+20°C35 %643 мм1.3 м/с5 %
    11:00Ясно и безоблачно+26°C27 %645 мм2.7 м/с5 %
    14:00Ясно и безоблачно+28°C28 %643 мм3.8 м/с5 %
    17:00Ясно и безоблачно+25°C26 %642 мм2.5 м/с5 %
    20:00Ясно и безоблачно+20°C42 %642 мм1.7 м/с5 %
    23:00Ясно и безоблачно+19°C37 %641 мм1.4 м/с5 %
  • 27июля
    Суббота
    +15°
    +28°
    Небольшая облачность
    ВремяПогодаТемператураВлажностьДавлениеВетер, м/сВероятность осадков
    02:00Ясно и безоблачно+19°C42 %641 мм1.1 м/с5 %
    05:00Ясно и безоблачно+16°C51 %641 мм1.9 м/с5 %
    08:00Ясно и безоблачно+20°C30 %643 мм1.1 м/с5 %
    11:00Ясно и безоблачно+27°C22 %645 мм2.5 м/с5 %
    14:00Небольшая облачность+28°C21 %643 мм3.6 м/с5 %
    17:00Ясно и безоблачно+26°C19 %643 мм3.0 м/с5 %
    20:00Ясно и безоблачно+22°C30 %643 мм1.3 м/с5 %
    23:00Ясно и безоблачно+21°C26 %642 мм1.1 м/с5 %
Мы используем cookies
Соглашаюсь